Time;durP1;ratioP1;P1;durP2;ratioP2;P2;SDS_P1;SDS_P2;PMS_P1;PMS_P2;Temp;Humidity;BMP_temperature;BMP_pressure;BME280_temperature;BME280_humidity;BME280_pressure;Samples;Min_cycle;Max_cycle;Signal;HPM_P1;HPM_P2
2022/04/23 00:02:12;;;;;;;8.73;4.40;;;;;;;;;;5108734;27;20543;-63
2022/04/23 00:04:39;;;;;;;12.30;4.47;;;;;;;;;;5122402;27;20048;-63
2022/04/23 00:07:05;;;;;;;8.07;4.90;;;;;;;;;;5127617;27;20048;-63
2022/04/23 00:09:32;;;;;;;9.55;5.05;;;;;;;;;;5109675;27;20133;-63
2022/04/23 00:11:59;;;;;;;12.50;5.20;;;;;;;;;;5109796;27;20147;-63
2022/04/23 00:14:26;;;;;;;11.23;5.10;;;;;;;;;;5108168;27;20052;-63
2022/04/23 00:16:53;;;;;;;9.20;5.07;;;;;;;;;;5108863;27;20055;-63
2022/04/23 00:19:20;;;;;;;9.75;4.90;;;;;;;;;;5107467;27;20056;-63
2022/04/23 00:21:47;;;;;;;11.45;6.00;;;;;;;;;;5107498;28;20147;-63
2022/04/23 00:24:13;;;;;;;8.07;5.13;;;;;;;;;;5107555;27;20097;-63
2022/04/23 00:26:40;;;;;;;13.50;5.70;;;;;;;;;;5107634;27;20075;-63
2022/04/23 00:29:06;;;;;;;9.88;5.53;;;;;;;;;;5111542;27;20625;-63
2022/04/23 00:31:33;;;;;;;11.75;5.80;;;;;;;;;;5108586;27;20532;-63
2022/04/23 00:33:59;;;;;;;8.85;5.00;;;;;;;;;;5115051;27;20071;-63
2022/04/23 00:36:28;;;;;;;11.68;6.00;;;;;;;;;;5128990;27;20059;-63
2022/04/23 00:38:54;;;;;;;13.40;5.78;;;;;;;;;;5111939;27;20125;-63
2022/04/23 00:44:06;;;;;;;10.95;5.68;;;;;;;;;;5108458;27;20087;-63
2022/04/23 00:46:32;;;;;;;10.40;5.25;;;;;;;;;;5111140;27;20549;-63
2022/04/23 00:48:59;;;;;;;12.23;6.05;;;;;;;;;;5109411;27;20140;-63
2022/04/23 00:51:27;;;;;;;11.18;5.72;;;;;;;;;;5108154;28;20478;-63
2022/04/23 00:53:54;;;;;;;10.75;5.50;;;;;;;;;;5108574;27;20082;-63
2022/04/23 00:56:22;;;;;;;10.18;5.40;;;;;;;;;;5107798;27;20137;-63
2022/04/23 00:58:49;;;;;;;15.05;6.15;;;;;;;;;;5108592;27;20584;-63
2022/04/23 01:01:15;;;;;;;12.15;6.93;;;;;;;;;;5108198;27;20056;-63
2022/04/23 01:03:44;;;;;;;13.98;6.45;;;;;;;;;;5107849;27;20055;-63
2022/04/23 01:06:11;;;;;;;11.90;6.43;;;;;;;;;;5108206;27;20152;-63
2022/04/23 01:08:37;;;;;;;10.55;6.15;;;;;;;;;;5122068;27;20056;-63
2022/04/23 01:11:04;;;;;;;11.77;6.68;;;;;;;;;;5119949;27;20078;-63
2022/04/23 01:13:32;;;;;;;14.25;7.63;;;;;;;;;;5109407;27;20177;-63
2022/04/23 01:16:02;;;;;;;12.70;7.15;;;;;;;;;;5111768;27;20152;-63
2022/04/23 01:18:29;;;;;;;13.77;7.97;;;;;;;;;;5129145;27;20142;-63
2022/04/23 01:20:56;;;;;;;11.70;7.25;;;;;;;;;;5131003;27;20059;-63
2022/04/23 01:23:23;;;;;;;14.00;7.75;;;;;;;;;;5132188;27;20590;-62
2022/04/23 01:25:53;;;;;;;15.45;8.23;;;;;;;;;;5132299;27;20583;-63
2022/04/23 01:28:20;;;;;;;12.48;7.65;;;;;;;;;;5130403;27;20055;-63
2022/04/23 01:30:53;;;;;;;13.63;8.05;;;;;;;;;;5129493;27;20122;-62
2022/04/23 01:33:20;;;;;;;13.25;7.43;;;;;;;;;;5129468;27;20136;-62
2022/04/23 01:35:46;;;;;;;16.08;7.90;;;;;;;;;;5130394;27;20583;-62
2022/04/23 01:38:13;;;;;;;15.20;7.72;;;;;;;;;;5116834;27;20563;-62
2022/04/23 01:40:40;;;;;;;14.52;8.30;;;;;;;;;;5111429;27;20067;-62
2022/04/23 01:43:08;;;;;;;13.88;8.45;;;;;;;;;;5111346;27;20143;-62
2022/04/23 01:45:35;;;;;;;14.20;8.98;;;;;;;;;;5110706;27;20096;-62
2022/04/23 01:48:01;;;;;;;13.73;8.90;;;;;;;;;;5122713;27;20059;-62
2022/04/23 01:50:28;;;;;;;15.35;9.30;;;;;;;;;;5131878;27;20910;-62
2022/04/23 01:52:54;;;;;;;14.73;9.57;;;;;;;;;;5131607;27;20557;-62
2022/04/23 01:55:20;;;;;;;16.08;9.90;;;;;;;;;;5131868;27;20109;-62
2022/04/23 01:57:47;;;;;;;15.38;9.80;;;;;;;;;;5120750;27;20537;-62
2022/04/23 02:00:14;;;;;;;15.30;9.57;;;;;;;;;;5111694;27;20075;-62
2022/04/23 02:02:40;;;;;;;17.30;10.35;;;;;;;;;;5111478;27;20055;-62
2022/04/23 02:05:08;;;;;;;14.30;9.50;;;;;;;;;;5111410;27;20085;-62
2022/04/23 02:07:37;;;;;;;14.32;9.50;;;;;;;;;;5111475;27;20079;-62
2022/04/23 02:10:05;;;;;;;19.15;10.48;;;;;;;;;;5110710;27;20117;-62
2022/04/23 02:12:31;;;;;;;16.80;10.23;;;;;;;;;;5111256;27;20048;-62
2022/04/23 02:14:57;;;;;;;23.70;10.32;;;;;;;;;;5110867;27;20106;-62
2022/04/23 02:17:37;;;;;;;17.48;10.82;;;;;;;;;;5111132;27;20080;-62
2022/04/23 02:20:04;;;;;;;15.90;10.55;;;;;;;;;;5110557;27;20563;-62
2022/04/23 02:22:30;;;;;;;17.02;11.05;;;;;;;;;;5110999;27;20079;-62
2022/04/23 02:24:57;;;;;;;19.40;11.50;;;;;;;;;;5109740;27;20803;-62
2022/04/23 02:27:24;;;;;;;19.15;11.15;;;;;;;;;;5109877;27;20160;-62
2022/04/23 02:29:54;;;;;;;22.63;10.80;;;;;;;;;;5110813;27;20140;-62
2022/04/23 02:32:20;;;;;;;19.02;11.43;;;;;;;;;;5108990;27;20084;-63
2022/04/23 02:34:47;;;;;;;20.05;11.52;;;;;;;;;;5109301;27;20083;-63
2022/04/23 02:37:13;;;;;;;19.30;12.07;;;;;;;;;;5116825;27;20083;-62
2022/04/23 02:39:40;;;;;;;17.85;11.90;;;;;;;;;;5130961;27;20058;-62
2022/04/23 02:42:09;;;;;;;18.98;12.18;;;;;;;;;;5129617;27;20142;-62
2022/04/23 02:44:35;;;;;;;20.58;12.15;;;;;;;;;;5110278;27;20066;-62
2022/04/23 02:47:04;;;;;;;19.38;12.35;;;;;;;;;;5110789;27;20055;-62
2022/04/23 02:49:30;;;;;;;19.05;11.68;;;;;;;;;;5110563;27;20060;-62
2022/04/23 02:51:57;;;;;;;17.95;12.30;;;;;;;;;;5109641;27;20111;-63
2022/04/23 02:54:23;;;;;;;19.30;13.20;;;;;;;;;;5110824;27;20098;-62
2022/04/23 02:56:50;;;;;;;21.00;13.52;;;;;;;;;;5109474;27;20079;-62
2022/04/23 02:59:17;;;;;;;21.65;13.20;;;;;;;;;;5108751;27;20052;-63
2022/04/23 03:01:43;;;;;;;22.40;14.43;;;;;;;;;;5109814;27;20079;-62
2022/04/23 03:04:10;;;;;;;19.55;13.82;;;;;;;;;;5109389;27;20571;-62
2022/04/23 03:06:37;;;;;;;23.05;13.35;;;;;;;;;;5109686;27;20488;-63
2022/04/23 03:09:03;;;;;;;22.17;15.60;;;;;;;;;;5108917;28;20561;-62
2022/04/23 03:11:30;;;;;;;22.40;14.35;;;;;;;;;;5109819;27;20136;-62
2022/04/23 03:14:00;;;;;;;21.90;14.48;;;;;;;;;;5109409;27;20632;-62
2022/04/23 03:16:26;;;;;;;21.85;13.60;;;;;;;;;;5109691;27;20075;-62
2022/04/23 03:18:53;;;;;;;25.13;15.15;;;;;;;;;;5123280;27;20055;-62
2022/04/23 03:21:20;;;;;;;22.08;14.23;;;;;;;;;;5129959;27;20060;-62
2022/04/23 03:23:46;;;;;;;24.30;15.70;;;;;;;;;;5129481;27;20152;-63
2022/04/23 03:26:12;;;;;;;24.85;15.45;;;;;;;;;;5130699;27;20093;-62
2022/04/23 03:28:39;;;;;;;23.23;15.13;;;;;;;;;;5118579;27;20056;-62
2022/04/23 03:31:05;;;;;;;24.35;15.82;;;;;;;;;;5110611;27;20091;-63
2022/04/23 03:33:32;;;;;;;24.63;15.93;;;;;;;;;;5128182;27;20165;-62
2022/04/23 03:35:59;;;;;;;24.00;15.68;;;;;;;;;;5130110;27;20052;-62
2022/04/23 03:38:25;;;;;;;23.25;15.63;;;;;;;;;;5118908;27;20596;-62
2022/04/23 03:40:54;;;;;;;23.25;15.63;;;;;;;;;;5109206;27;20094;-62
2022/04/23 03:43:20;;;;;;;23.58;15.70;;;;;;;;;;5109027;27;20076;-62
2022/04/23 03:45:47;;;;;;;23.25;15.30;;;;;;;;;;5109894;27;20072;-62
2022/04/23 03:48:14;;;;;;;24.73;16.63;;;;;;;;;;5113111;27;20558;-62
2022/04/23 03:50:41;;;;;;;22.98;15.93;;;;;;;;;;5129039;27;20513;-62
2022/04/23 03:53:08;;;;;;;25.48;16.08;;;;;;;;;;5127766;27;20048;-62
2022/04/23 03:55:35;;;;;;;21.73;15.10;;;;;;;;;;5129172;27;20079;-62
2022/04/23 03:58:02;;;;;;;23.85;15.38;;;;;;;;;;5126737;27;20186;-62
2022/04/23 04:00:31;;;;;;;27.02;16.02;;;;;;;;;;5129753;27;20067;-62
2022/04/23 04:02:57;;;;;;;27.85;16.67;;;;;;;;;;5127972;27;20116;-62
2022/04/23 04:05:24;;;;;;;24.67;16.33;;;;;;;;;;5129797;27;20055;-62
2022/04/23 04:07:52;;;;;;;25.17;16.75;;;;;;;;;;5127996;27;20517;-62
2022/04/23 04:10:19;;;;;;;25.67;16.65;;;;;;;;;;5128681;27;20142;-62
2022/04/23 04:12:46;;;;;;;26.25;16.15;;;;;;;;;;5128439;27;20091;-62
2022/04/23 04:15:16;;;;;;;25.95;16.75;;;;;;;;;;5116012;27;20132;-62
2022/04/23 04:17:44;;;;;;;24.13;15.40;;;;;;;;;;5108236;27;20072;-62
2022/04/23 04:20:12;;;;;;;28.38;18.23;;;;;;;;;;5109414;27;20538;-62
2022/04/23 04:22:41;;;;;;;25.65;17.10;;;;;;;;;;5108558;27;20547;-62
2022/04/23 04:25:09;;;;;;;26.98;17.17;;;;;;;;;;5108846;27;20048;-62
2022/04/23 04:27:37;;;;;;;25.88;16.35;;;;;;;;;;5108147;27;20438;-62
2022/04/23 04:30:04;;;;;;;26.40;15.85;;;;;;;;;;5108594;27;20083;-61
2022/04/23 04:32:31;;;;;;;24.73;16.00;;;;;;;;;;5109417;27;20090;-62
2022/04/23 04:34:57;;;;;;;26.27;16.35;;;;;;;;;;5108008;27;20122;-62
2022/04/23 04:37:24;;;;;;;25.20;16.75;;;;;;;;;;5108188;27;20076;-61
2022/04/23 04:39:50;;;;;;;27.70;16.38;;;;;;;;;;5108432;27;20080;-62
2022/04/23 04:42:16;;;;;;;30.17;17.33;;;;;;;;;;5107787;27;20142;-62
2022/04/23 04:44:43;;;;;;;26.30;16.75;;;;;;;;;;5125782;27;20081;-62
2022/04/23 04:47:09;;;;;;;28.63;17.15;;;;;;;;;;5129534;27;20060;-61
2022/04/23 04:49:36;;;;;;;27.50;17.38;;;;;;;;;;5131414;27;20086;-61
2022/04/23 04:52:02;;;;;;;27.25;17.13;;;;;;;;;;5132230;27;20515;-61
2022/04/23 04:54:29;;;;;;;27.10;17.40;;;;;;;;;;5121421;27;20166;-63
2022/04/23 04:56:56;;;;;;;28.20;17.75;;;;;;;;;;5117542;27;20167;-62
2022/04/23 04:59:23;;;;;;;23.95;16.40;;;;;;;;;;5131876;27;20079;-62
2022/04/23 05:01:50;;;;;;;26.15;17.13;;;;;;;;;;5118306;27;20079;-62
2022/04/23 05:04:17;;;;;;;25.07;17.23;;;;;;;;;;5111611;27;20494;-62
2022/04/23 05:06:43;;;;;;;27.55;17.20;;;;;;;;;;5124862;27;20544;-62
2022/04/23 05:09:10;;;;;;;24.40;16.83;;;;;;;;;;5112574;27;20083;-62
2022/04/23 05:11:36;;;;;;;26.52;17.33;;;;;;;;;;5111533;27;20143;-62
2022/04/23 05:14:03;;;;;;;25.98;17.10;;;;;;;;;;5111739;27;20151;-62
2022/04/23 05:16:29;;;;;;;28.98;17.85;;;;;;;;;;5112169;27;20052;-62
2022/04/23 05:18:56;;;;;;;28.35;16.48;;;;;;;;;;5110538;27;20518;-62
2022/04/23 05:21:22;;;;;;;26.50;16.50;;;;;;;;;;5122764;27;20087;-62
2022/04/23 05:23:48;;;;;;;27.08;16.33;;;;;;;;;;5111015;27;20080;-62
2022/04/23 05:26:15;;;;;;;28.35;17.10;;;;;;;;;;5110567;27;20087;-62
2022/04/23 05:28:41;;;;;;;26.83;16.60;;;;;;;;;;5111849;27;20565;-62
2022/04/23 05:31:08;;;;;;;22.65;14.73;;;;;;;;;;5115174;27;20547;-62
2022/04/23 05:33:35;;;;;;;25.73;16.33;;;;;;;;;;5112459;27;20148;-62
2022/04/23 05:36:05;;;;;;;22.92;14.98;;;;;;;;;;5111053;27;20087;-62
2022/04/23 05:38:32;;;;;;;22.42;15.68;;;;;;;;;;5111337;27;20166;-62
2022/04/23 05:40:58;;;;;;;23.58;15.20;;;;;;;;;;5115090;27;20134;-62
2022/04/23 05:43:25;;;;;;;23.48;15.07;;;;;;;;;;5131679;27;20056;-62
2022/04/23 05:45:51;;;;;;;24.58;15.55;;;;;;;;;;5131969;27;20130;-62
2022/04/23 05:48:17;;;;;;;18.67;13.43;;;;;;;;;;5120767;27;20048;-62
2022/04/23 05:50:44;;;;;;;20.52;13.95;;;;;;;;;;5112229;27;20056;-62
2022/04/23 05:53:11;;;;;;;22.00;13.93;;;;;;;;;;5111383;27;20092;-62
2022/04/23 05:55:37;;;;;;;21.75;13.98;;;;;;;;;;5111216;27;20084;-62
2022/04/23 05:58:03;;;;;;;21.98;13.73;;;;;;;;;;5111579;27;20060;-62
2022/04/23 06:00:30;;;;;;;19.35;13.57;;;;;;;;;;5112382;27;20147;-62
2022/04/23 06:02:56;;;;;;;21.38;13.52;;;;;;;;;;5131249;27;20136;-62
2022/04/23 06:05:23;;;;;;;20.77;13.40;;;;;;;;;;5116557;27;20052;-62
2022/04/23 06:07:49;;;;;;;18.40;11.55;;;;;;;;;;5110963;27;20082;-62
2022/04/23 06:10:16;;;;;;;23.30;13.82;;;;;;;;;;5110780;27;20138;-62
2022/04/23 06:12:42;;;;;;;18.67;12.98;;;;;;;;;;5128053;27;20078;-62
2022/04/23 06:15:09;;;;;;;17.83;11.73;;;;;;;;;;5129371;27;20595;-62
2022/04/23 06:17:36;;;;;;;18.00;12.00;;;;;;;;;;5110604;27;20253;-62
2022/04/23 06:20:02;;;;;;;19.20;12.95;;;;;;;;;;5110237;27;20056;-62
2022/04/23 06:22:29;;;;;;;21.65;13.43;;;;;;;;;;5110865;27;20094;-62
2022/04/23 06:24:55;;;;;;;17.77;11.98;;;;;;;;;;5110197;27;20090;-62
2022/04/23 06:27:21;;;;;;;18.30;12.15;;;;;;;;;;5110231;27;20048;-62
2022/04/23 06:29:48;;;;;;;17.70;11.75;;;;;;;;;;5109296;27;20099;-62
2022/04/23 06:32:14;;;;;;;20.80;13.05;;;;;;;;;;5114981;27;20514;-62
2022/04/23 06:34:41;;;;;;;18.90;12.32;;;;;;;;;;5113433;27;20597;-62
2022/04/23 06:37:08;;;;;;;17.48;11.95;;;;;;;;;;5113212;27;20072;-62
2022/04/23 06:39:34;;;;;;;19.83;12.27;;;;;;;;;;5112090;27;20101;-62
2022/04/23 06:42:01;;;;;;;17.83;12.93;;;;;;;;;;5110440;27;20210;-62
2022/04/23 06:44:27;;;;;;;18.25;12.15;;;;;;;;;;5119866;27;20119;-62
2022/04/23 06:46:54;;;;;;;19.17;11.98;;;;;;;;;;5112994;27;20142;-63
2022/04/23 06:49:20;;;;;;;17.73;11.65;;;;;;;;;;5114134;27;20075;-63
2022/04/23 06:51:47;;;;;;;18.35;10.88;;;;;;;;;;5130570;27;20052;-62
2022/04/23 06:54:13;;;;;;;18.52;11.70;;;;;;;;;;5131124;27;20083;-63
2022/04/23 06:56:39;;;;;;;20.77;13.32;;;;;;;;;;5130625;27;20078;-63
2022/04/23 06:59:06;;;;;;;19.33;12.27;;;;;;;;;;5130241;27;21412;-62
2022/04/23 07:01:32;;;;;;;17.52;12.68;;;;;;;;;;5115599;27;21309;-62
2022/04/23 07:03:59;;;;;;;18.88;12.95;;;;;;;;;;5130710;27;20514;-62
2022/04/23 07:06:25;;;;;;;18.58;13.05;;;;;;;;;;5130561;27;20622;-62
2022/04/23 07:08:51;;;;;;;24.98;13.48;;;;;;;;;;5115237;27;20091;-62
2022/04/23 07:11:17;;;;;;;17.17;11.98;;;;;;;;;;5108930;27;20080;-62
2022/04/23 07:13:44;;;;;;;18.95;12.63;;;;;;;;;;5109644;27;20090;-62
2022/04/23 07:16:11;;;;;;;17.95;12.45;;;;;;;;;;5109230;27;20075;-62
2022/04/23 07:18:41;;;;;;;16.10;12.30;;;;;;;;;;5120298;27;20134;-62
2022/04/23 07:21:07;;;;;;;18.58;13.30;;;;;;;;;;5123238;27;20512;-62
2022/04/23 07:26:19;;;;;;;19.25;12.43;;;;;;;;;;5111939;27;20118;-61
2022/04/23 07:28:45;;;;;;;17.73;12.18;;;;;;;;;;5111654;27;20082;-61
2022/04/23 07:31:12;;;;;;;20.20;12.80;;;;;;;;;;5109640;27;20988;-61
2022/04/23 07:39:08;;;;;;;17.92;12.38;;;;;;;;;;5108463;28;20106;-63
2022/04/23 07:41:34;;;;;;;20.25;12.77;;;;;;;;;;5108895;27;20054;-63
2022/04/23 07:44:01;;;;;;;16.88;11.77;;;;;;;;;;5109173;27;21198;-63
2022/04/23 07:46:27;;;;;;;17.70;11.40;;;;;;;;;;5108465;27;20079;-63
2022/04/23 07:48:53;;;;;;;19.73;11.65;;;;;;;;;;5108253;27;20104;-63
2022/04/23 07:51:20;;;;;;;16.35;9.30;;;;;;;;;;5124859;27;20059;-63
2022/04/23 07:53:47;;;;;;;17.42;11.82;;;;;;;;;;5120918;27;20083;-63
2022/04/23 07:56:13;;;;;;;20.83;10.73;;;;;;;;;;5112319;27;20051;-63
2022/04/23 07:58:40;;;;;;;17.92;11.20;;;;;;;;;;5120727;27;20059;-63
2022/04/23 08:01:06;;;;;;;16.38;10.60;;;;;;;;;;5112127;27;20110;-63
2022/04/23 08:03:34;;;;;;;17.73;11.82;;;;;;;;;;5112334;27;20170;-63
2022/04/23 08:06:01;;;;;;;;;;;;;;;;;;5114514;27;20060;-63
2022/04/23 08:08:27;;;;;;;18.73;12.35;;;;;;;;;;5127174;27;42206;-63
2022/04/23 08:10:54;;;;;;;19.75;10.95;;;;;;;;;;5121029;27;20138;-63
2022/04/23 08:13:20;;;;;;;16.00;10.88;;;;;;;;;;5114526;27;20565;-63
2022/04/23 08:15:46;;;;;;;17.40;12.20;;;;;;;;;;5128617;27;20147;-63
2022/04/23 08:18:13;;;;;;;16.50;10.82;;;;;;;;;;5126898;27;20061;-63
2022/04/23 08:20:41;;;;;;;16.70;11.80;;;;;;;;;;5119594;27;20083;-63
2022/04/23 08:23:08;;;;;;;15.90;10.38;;;;;;;;;;5127857;27;20055;-64
2022/04/23 08:25:35;;;;;;;16.95;11.57;;;;;;;;;;5128276;27;20553;-63
2022/04/23 08:30:46;;;;;;;20.73;10.65;;;;;;;;;;5120653;27;20056;-63
2022/04/23 08:33:13;;;;;;;16.63;11.23;;;;;;;;;;5122246;27;20079;-63
2022/04/23 08:35:39;;;;;;;19.65;11.50;;;;;;;;;;5126911;27;20079;-63
2022/04/23 08:38:06;;;;;;;17.02;10.93;;;;;;;;;;5118727;27;20088;-63
2022/04/23 08:40:38;;;;;;;17.40;11.55;;;;;;;;;;5118750;27;20055;-63
2022/04/23 08:43:06;;;;;;;18.45;11.15;;;;;;;;;;5128065;27;20466;-63
2022/04/23 08:45:32;;;;;;;17.50;11.43;;;;;;;;;;5125027;27;20544;-63
2022/04/23 08:48:00;;;;;;;16.23;11.38;;;;;;;;;;5119148;27;20598;-63
2022/04/23 08:50:26;;;;;;;19.13;11.63;;;;;;;;;;5117684;27;20853;-63
2022/04/23 08:52:57;;;;;;;20.27;11.32;;;;;;;;;;5129322;27;20108;-63
2022/04/23 08:55:26;;;;;;;21.05;12.75;;;;;;;;;;5128430;27;20549;-63
2022/04/23 08:57:52;;;;;;;17.80;10.05;;;;;;;;;;5110151;27;20051;-61
2022/04/23 09:00:19;;;;;;;19.45;11.95;;;;;;;;;;5126193;27;20135;-61
2022/04/23 09:02:46;;;;;;;16.17;10.38;;;;;;;;;;5120142;27;20138;-61
2022/04/23 09:05:13;;;;;;;18.20;11.98;;;;;;;;;;5128407;27;20150;-61
2022/04/23 09:07:50;;;;;;;16.13;10.85;;;;;;;;;;5117598;27;20060;-61
2022/04/23 09:10:17;;;;;;;17.02;10.93;;;;;;;;;;5121035;27;20052;-61
2022/04/23 09:12:53;;;;;;;18.90;10.32;;;;;;;;;;5111209;27;20183;-61
2022/04/23 09:23:44;;;;;;;17.55;10.82;;;;;;;;;;5110315;27;20130;-61
2022/04/23 09:26:14;;;;;;;17.40;11.55;;;;;;;;;;5127911;27;20071;-62
2022/04/23 09:28:44;;;;;;;15.20;11.07;;;;;;;;;;5125230;27;20083;-62
2022/04/23 09:31:15;;;;;;;20.90;12.85;;;;;;;;;;5112930;27;20075;-62
2022/04/23 09:33:46;;;;;;;19.20;12.48;;;;;;;;;;5111254;27;20058;-62
2022/04/23 09:36:12;;;;;;;20.35;11.75;;;;;;;;;;5120780;27;20109;-62
2022/04/23 09:38:40;;;;;;;19.25;12.68;;;;;;;;;;5123347;27;20079;-62
2022/04/23 09:41:15;;;;;;;19.00;12.75;;;;;;;;;;5128644;27;20682;-62
2022/04/23 09:43:44;;;;;;;18.95;12.05;;;;;;;;;;5118213;27;20071;-62
2022/04/23 09:46:10;;;;;;;19.98;10.13;;;;;;;;;;5128051;27;20056;-62
2022/04/23 09:48:38;;;;;;;17.95;10.70;;;;;;;;;;5115342;27;20048;-62
2022/04/23 09:51:05;;;;;;;19.40;11.55;;;;;;;;;;5120179;27;20581;-62
2022/04/23 09:53:31;;;;;;;18.52;11.38;;;;;;;;;;5117189;27;20102;-62
2022/04/23 09:56:04;;;;;;;20.67;12.60;;;;;;;;;;5111167;27;20147;-62
2022/04/23 09:58:33;;;;;;;21.90;11.57;;;;;;;;;;5118068;27;20113;-62
2022/04/23 10:00:59;;;;;;;19.00;12.00;;;;;;;;;;5130801;27;20047;-62
2022/04/23 10:03:30;;;;;;;17.30;11.40;;;;;;;;;;5129068;27;20078;-62
2022/04/23 10:05:58;;;;;;;19.85;12.18;;;;;;;;;;5121276;27;20061;-62
2022/04/23 10:08:29;;;;;;;18.77;12.20;;;;;;;;;;5128923;27;20129;-62
2022/04/23 10:10:59;;;;;;;20.15;12.82;;;;;;;;;;5118843;27;20346;-62
2022/04/23 10:13:28;;;;;;;17.95;12.00;;;;;;;;;;5128264;27;20127;-62
2022/04/23 10:15:55;;;;;;;19.75;11.88;;;;;;;;;;5131497;27;20101;-62
2022/04/23 10:18:22;;;;;;;19.30;12.13;;;;;;;;;;5131501;27;20052;-62
2022/04/23 10:20:57;;;;;;;18.42;10.27;;;;;;;;;;5118733;27;20142;-62
2022/04/23 10:23:33;;;;;;;18.02;10.40;;;;;;;;;;5130430;27;20083;-62
2022/04/23 10:26:02;;;;;;;16.48;10.57;;;;;;;;;;5130318;27;20573;-63
2022/04/23 10:28:28;;;;;;;20.30;11.95;;;;;;;;;;5132308;27;20174;-62
2022/04/23 10:31:12;;;;;;;17.52;10.63;;;;;;;;;;5131353;27;20094;-62
2022/04/23 10:33:42;;;;;;;16.33;10.25;;;;;;;;;;5130069;27;20060;-62
2022/04/23 10:36:11;;;;;;;19.40;11.77;;;;;;;;;;5118964;27;20132;-64
2022/04/23 10:38:38;;;;;;;19.00;11.10;;;;;;;;;;5130296;27;20105;-63
2022/04/23 10:41:05;;;;;;;18.38;11.85;;;;;;;;;;5131200;27;20101;-63
2022/04/23 10:43:32;;;;;;;19.92;12.32;;;;;;;;;;5122920;27;20517;-63
2022/04/23 10:46:00;;;;;;;18.80;12.27;;;;;;;;;;5129775;27;20624;-63
2022/04/23 10:48:26;;;;;;;;;;;;;;;;;;5125797;27;20048;-62
2022/04/23 10:51:00;;;;;;;17.77;11.80;;;;;;;;;;5119214;27;42905;-62
2022/04/23 10:53:37;;;;;;;19.40;13.10;;;;;;;;;;5131385;27;20051;-62
2022/04/23 10:56:07;;;;;;;19.15;12.52;;;;;;;;;;5129729;27;20075;-62
2022/04/23 10:58:34;;;;;;;22.42;11.73;;;;;;;;;;5129181;27;20104;-62
2022/04/23 11:01:20;;;;;;;18.52;11.60;;;;;;;;;;5120819;27;20575;-63
2022/04/23 11:04:05;;;;;;;16.85;9.80;;;;;;;;;;5114067;27;20552;-62
2022/04/23 11:12:33;;;;;;;20.02;12.50;;;;;;;;;;5130293;27;20162;-62
2022/04/23 11:15:00;;;;;;;18.63;13.00;;;;;;;;;;5124885;27;20518;-62
2022/04/23 11:17:36;;;;;;;19.52;12.50;;;;;;;;;;5113198;27;20473;-62
2022/04/23 11:20:02;;;;;;;18.40;11.77;;;;;;;;;;5129036;27;20166;-62
2022/04/23 11:22:29;;;;;;;17.58;11.07;;;;;;;;;;5123262;27;20141;-62
2022/04/23 11:24:55;;;;;;;21.58;12.80;;;;;;;;;;5113254;27;20068;-62
2022/04/23 11:27:25;;;;;;;20.20;13.20;;;;;;;;;;5118840;27;20056;-62
2022/04/23 11:29:52;;;;;;;21.38;14.60;;;;;;;;;;5129166;27;20060;-62
2022/04/23 11:32:26;;;;;;;23.48;13.20;;;;;;;;;;5125879;27;20090;-62
2022/04/23 11:34:55;;;;;;;21.58;13.25;;;;;;;;;;5128121;27;20481;-62
2022/04/23 11:37:38;;;;;;;23.13;13.27;;;;;;;;;;5129410;27;20512;-62
2022/04/23 11:40:13;;;;;;;22.88;14.05;;;;;;;;;;5128335;27;20145;-62
2022/04/23 11:42:42;;;;;;;20.17;13.07;;;;;;;;;;5129824;27;20047;-63
2022/04/23 11:45:08;;;;;;;;;;;;;;;;;;5118555;27;20070;-62
2022/04/23 11:47:35;;;;;;;20.95;11.90;;;;;;;;;;5126854;27;44402;-63
2022/04/23 11:50:07;;;;;;;19.67;12.40;;;;;;;;;;5129092;27;20095;-63
2022/04/23 11:52:34;;;;;;;21.17;13.75;;;;;;;;;;5121923;27;20509;-63
2022/04/23 11:55:01;;;;;;;23.38;14.02;;;;;;;;;;5126288;27;20569;-63
2022/04/23 11:57:27;;;;;;;23.33;13.88;;;;;;;;;;5128264;27;20574;-62
2022/04/23 11:59:59;;;;;;;21.92;14.93;;;;;;;;;;5128263;27;20081;-62
2022/04/23 12:02:27;;;;;;;21.45;14.48;;;;;;;;;;5122682;27;20091;-63
2022/04/23 12:04:54;;;;;;;23.02;14.15;;;;;;;;;;5127579;27;20059;-62
2022/04/23 12:07:21;;;;;;;21.33;13.95;;;;;;;;;;5128018;27;20079;-62
2022/04/23 12:09:57;;;;;;;21.23;13.60;;;;;;;;;;5117124;27;20079;-62
2022/04/23 12:12:25;;;;;;;22.13;13.52;;;;;;;;;;5130141;27;20048;-62
2022/04/23 12:14:53;;;;;;;24.15;13.60;;;;;;;;;;5128357;27;20505;-63
2022/04/23 12:17:20;;;;;;;19.03;11.93;;;;;;;;;;5129149;27;20087;-63
2022/04/23 12:19:50;;;;;;;23.93;13.87;;;;;;;;;;5128339;27;20321;-63
2022/04/23 12:22:24;;;;;;;20.92;14.50;;;;;;;;;;5128958;27;20142;-63
2022/04/23 12:24:50;;;;;;;26.05;14.65;;;;;;;;;;5123468;27;20180;-63
2022/04/23 12:27:20;;;;;;;22.58;14.25;;;;;;;;;;5115549;27;20052;-63
2022/04/23 12:40:59;;;;;;;18.35;12.35;;;;;;;;;;5127386;27;20047;-63
2022/04/23 12:43:28;;;;;;;18.92;10.57;;;;;;;;;;5121663;27;20143;-62
2022/04/23 12:46:03;;;;;;;24.55;14.25;;;;;;;;;;5112642;27;20051;-63
2022/04/23 12:48:30;;;;;;;22.23;12.55;;;;;;;;;;5118137;27;20055;-63
2022/04/23 12:51:05;;;;;;;19.48;13.10;;;;;;;;;;5128132;27;20139;-63
2022/04/23 12:53:32;;;;;;;22.17;12.52;;;;;;;;;;5126957;27;20051;-63
2022/04/23 12:56:00;;;;;;;17.95;11.90;;;;;;;;;;5121235;27;20087;-63
2022/04/23 12:58:27;;;;;;;;;;;;;;;;;;5119925;27;20074;-63
2022/04/23 13:00:53;;;;;;;17.15;10.48;;;;;;;;;;5127581;27;46694;-63
2022/04/23 13:03:32;;;;;;;23.27;13.15;;;;;;;;;;5128501;27;20087;-63
2022/04/23 13:05:58;;;;;;;18.05;11.20;;;;;;;;;;5125865;27;20862;-63
2022/04/23 13:11:25;;;;;;;19.95;13.15;;;;;;;;;;5132238;27;20094;-64
2022/04/23 13:13:54;;;;;;;20.27;12.02;;;;;;;;;;5123076;27;20792;-63
2022/04/23 13:16:20;;;;;;;;;;;;;;;;;;5131229;27;20578;-63
2022/04/23 13:18:46;;;;;;;17.38;10.48;;;;;;;;;;5129908;27;44894;-63
2022/04/23 13:21:14;;;;;;;18.17;11.93;;;;;;;;;;5130403;27;20131;-63
2022/04/23 13:23:40;;;;;;;16.33;10.95;;;;;;;;;;5130621;27;20494;-63
2022/04/23 13:26:07;;;;;;;18.65;11.35;;;;;;;;;;5130817;27;20197;-63
2022/04/23 13:28:33;;;;;;;18.38;11.63;;;;;;;;;;5122848;27;20147;-63
2022/04/23 13:30:59;;;;;;;19.23;11.93;;;;;;;;;;5117880;27;20139;-64
2022/04/23 13:33:26;;;;;;;19.50;12.05;;;;;;;;;;5128072;27;20052;-64
2022/04/23 13:35:52;;;;;;;20.35;11.50;;;;;;;;;;5127127;27;20148;-64
2022/04/23 13:38:18;;;;;;;17.85;11.57;;;;;;;;;;5120250;27;20055;-64
2022/04/23 13:40:45;;;;;;;19.70;11.77;;;;;;;;;;5131629;27;20135;-64
2022/04/23 13:43:12;;;;;;;15.13;10.48;;;;;;;;;;5116295;27;20052;-64
2022/04/23 13:45:39;;;;;;;24.55;12.05;;;;;;;;;;5121111;27;20139;-63
2022/04/23 13:48:07;;;;;;;16.27;11.55;;;;;;;;;;5128019;27;20142;-64
2022/04/23 13:50:33;;;;;;;;;;;;;;;;;;5126289;27;20117;-64
2022/04/23 13:53:00;;;;;;;14.00;9.93;;;;;;;;;;5134358;27;43612;-66
2022/04/23 13:55:26;;;;;;;15.82;10.35;;;;;;;;;;5125431;27;20083;-63
2022/04/23 13:57:52;;;;;;;15.82;10.07;;;;;;;;;;5115138;27;20108;-63
2022/04/23 14:00:19;;;;;;;16.73;10.45;;;;;;;;;;5128184;27;21571;-63
2022/04/23 14:11:11;;;;;;;19.13;9.73;;;;;;;;;;5125835;27;20497;-60
2022/04/23 14:13:37;;;;;;;15.02;8.90;;;;;;;;;;5122584;27;20109;-60
2022/04/23 14:16:03;;;;;;;15.23;9.13;;;;;;;;;;5123818;27;20169;-61
2022/04/23 14:18:30;;;;;;;15.20;9.10;;;;;;;;;;5130212;27;20052;-61
2022/04/23 14:20:56;;;;;;;16.95;9.32;;;;;;;;;;5128754;27;20125;-61
2022/04/23 14:23:23;;;;;;;13.40;7.88;;;;;;;;;;5128847;27;20556;-61
2022/04/23 14:25:50;;;;;;;15.90;7.40;;;;;;;;;;5122927;27;20036;-60
2022/04/23 14:28:17;;;;;;;14.90;8.73;;;;;;;;;;5123368;27;20126;-63
2022/04/23 14:30:43;;;;;;;14.35;9.70;;;;;;;;;;5125855;27;20379;-62
2022/04/23 14:33:10;;;;;;;12.95;8.35;;;;;;;;;;5126145;27;20109;-62
2022/04/23 14:35:37;;;;;;;13.35;8.68;;;;;;;;;;5128900;27;20051;-63
2022/04/23 14:38:04;;;;;;;14.52;8.27;;;;;;;;;;5128216;27;20532;-64
2022/04/23 14:40:31;;;;;;;14.82;8.43;;;;;;;;;;5113952;27;20165;-63
2022/04/23 14:43:00;;;;;;;15.90;9.00;;;;;;;;;;5117482;27;20074;-64
2022/04/23 14:45:30;;;;;;;14.15;8.45;;;;;;;;;;5120140;27;20294;-65
2022/04/23 14:47:56;;;;;;;14.57;9.00;;;;;;;;;;5109892;27;20088;-68
2022/04/23 14:50:23;;;;;;;12.82;8.60;;;;;;;;;;5110392;27;20052;-67
2022/04/23 14:55:34;;;;;;;13.27;8.43;;;;;;;;;;5109407;27;20143;-65
2022/04/23 14:58:01;;;;;;;13.43;7.68;;;;;;;;;;5109277;27;20432;-65
2022/04/23 15:00:27;;;;;;;14.07;9.07;;;;;;;;;;5108524;27;20094;-65
2022/04/23 15:02:56;;;;;;;15.50;8.68;;;;;;;;;;5109648;27;20223;-65
2022/04/23 15:05:23;;;;;;;12.70;7.95;;;;;;;;;;5109429;27;20056;-65
2022/04/23 15:07:50;;;;;;;14.23;7.97;;;;;;;;;;5109608;27;20104;-65
2022/04/23 15:10:16;;;;;;;11.32;7.40;;;;;;;;;;5109959;27;20553;-65
2022/04/23 15:12:44;;;;;;;12.55;8.15;;;;;;;;;;5108912;27;20052;-65
2022/04/23 15:15:10;;;;;;;11.27;7.23;;;;;;;;;;5109327;27;20125;-65
2022/04/23 15:17:36;;;;;;;13.18;8.38;;;;;;;;;;5108694;27;20305;-65
2022/04/23 15:20:03;;;;;;;13.43;8.35;;;;;;;;;;5108749;27;20086;-65